Time;durP1;ratioP1;P1;durP2;ratioP2;P2;SDS_P1;SDS_P2;PMS_P1;PMS_P2;Temp;Humidity;BMP_temperature;BMP_pressure;BME280_temperature;BME280_humidity;BME280_pressure;Samples;Min_cycle;Max_cycle;Signal;HPM_P1;HPM_P2
2022/12/17 13:08:23;;;;;;;;;57.75;49.00;;;;;1.89;67.07;101534.78;4997468;28;45314;-68
2022/12/17 13:10:50;;;;;;;;;58.00;49.00;;;;;1.79;66.53;101506.16;5017359;28;46950;-71
2022/12/17 13:13:54;;;;;;;;;59.25;49.00;;;;;1.94;67.18;101532.25;5037098;28;45502;-69
2022/12/17 13:16:45;;;;;;;;;64.50;51.00;;;;;1.89;66.17;101536.53;5037550;28;45419;-68
2022/12/17 13:19:31;;;;;;;;;61.75;51.50;;;;;1.87;65.93;101526.13;5017164;28;45298;-68
2022/12/17 13:22:11;;;;;;;;;63.50;52.50;;;;;1.81;66.05;101513.06;5037611;28;45289;-68
2022/12/17 13:24:37;;;;;;;;;51.75;43.75;;;;;1.87;66.81;101525.25;5036828;28;45537;-69
2022/12/17 13:27:03;;;;;;;;;54.75;45.75;;;;;1.87;66.33;101523.53;5036588;28;45391;-68
2022/12/17 13:29:36;;;;;;;;;49.25;43.75;;;;;1.88;66.23;101520.06;5036730;28;45260;-69
2022/12/17 13:32:22;;;;;;;;;56.50;47.50;;;;;1.88;66.49;101533.03;5036720;28;46102;-69
2022/12/17 13:35:23;;;;;;;;;55.75;46.00;;;;;1.87;66.15;101525.25;5036303;28;45446;-68
2022/12/17 13:38:06;;;;;;;;;58.75;49.25;;;;;1.82;66.56;101521.75;5038019;28;45443;-68
2022/12/17 13:41:04;;;;;;;;;60.25;51.00;;;;;1.59;65.99;101489.50;5038168;28;45234;-68
2022/12/17 13:43:49;;;;;;;;;59.25;49.75;;;;;1.71;66.48;101519.00;5016577;28;46243;-68
2022/12/17 13:46:23;;;;;;;;;76.00;59.00;;;;;1.66;66.56;101520.69;5019175;28;45493;-67
2022/12/17 13:48:59;;;;;;;;;53.25;45.25;;;;;1.64;66.22;101520.69;5037039;28;45674;-68
2022/12/17 13:51:29;;;;;;;;;54.50;45.25;;;;;1.62;66.19;101527.56;5021196;28;45308;-69
2022/12/17 13:53:58;;;;;;;;;59.75;48.50;;;;;1.52;66.54;101517.91;5020718;28;48673;-69
2022/12/17 13:56:32;;;;;;;;;53.75;44.25;;;;;1.55;66.62;101515.34;5039480;28;45765;-68
2022/12/17 13:59:01;;;;;;;;;67.25;54.75;;;;;1.52;66.76;101517.91;5036284;28;45305;-68
2022/12/17 14:01:28;;;;;;;;;54.25;44.25;;;;;1.52;66.26;101515.31;5018226;28;45493;-68
2022/12/17 14:03:59;;;;;;;;;61.75;51.00;;;;;1.49;66.86;101516.16;5017744;28;47154;-68
2022/12/17 14:06:33;;;;;;;;;71.33;59.00;;;;;1.33;66.87;101496.94;5018641;28;45453;-68
2022/12/17 14:09:00;;;;;;;;;63.75;49.25;;;;;1.49;66.97;101528.25;5018555;28;45410;-69
2022/12/17 14:14:28;;;;;;;;;60.25;49.75;;;;;1.26;67.27;101479.56;5035987;28;45813;-68
2022/12/17 14:16:54;;;;;;;;;45.25;41.50;;;;;1.50;66.47;101523.09;5036801;28;45554;-69
2022/12/17 14:19:20;;;;;;;;;44.75;40.00;;;;;1.52;66.67;101523.09;5035652;28;45386;-68
2022/12/17 14:21:46;;;;;;;;;54.00;45.00;;;;;1.51;66.70;101523.94;5036466;28;45502;-69
2022/12/17 14:24:13;;;;;;;;;60.75;50.50;;;;;1.53;66.55;101527.44;5035467;28;45464;-70
2022/12/17 14:26:50;;;;;;;;;54.00;47.00;;;;;1.55;66.92;101530.91;5035572;28;45239;-67
2022/12/17 14:29:22;;;;;;;;;48.50;43.50;;;;;1.53;67.00;101533.50;5036206;28;45386;-69
2022/12/17 14:31:53;;;;;;;;;51.50;43.75;;;;;1.55;67.19;101538.69;5036388;28;45435;-67
2022/12/17 14:34:19;;;;;;;;;45.50;41.00;;;;;1.54;66.82;101543.03;5035702;28;45493;-68
2022/12/17 14:36:45;;;;;;;;;55.50;46.25;;;;;1.55;66.90;101538.69;5035329;28;45332;-68
2022/12/17 14:39:22;;;;;;;;;60.75;52.25;;;;;1.56;66.75;101535.25;5035510;28;45298;-66
2022/12/17 14:44:32;;;;;;;;;49.50;42.50;;;;;1.59;66.59;101535.28;5035948;28;45234;-67
2022/12/17 14:47:22;;;;;;;;;61.25;50.00;;;;;1.63;66.80;101542.28;5035199;28;45485;-69
2022/12/17 14:50:10;;;;;;;;;47.50;41.00;;;;;1.58;65.74;101543.91;5030112;28;45350;-67
2022/12/17 14:52:40;;;;;;;;;44.50;39.25;;;;;1.55;66.05;101542.19;5028690;28;45498;-69
2022/12/17 14:55:21;;;;;;;;;43.25;39.50;;;;;1.59;65.15;101535.28;5017428;28;47066;-68
2022/12/17 14:57:47;;;;;;;;;51.75;43.25;;;;;1.57;65.50;101521.44;5035552;28;45376;-69
2022/12/17 15:00:13;;;;;;;;;49.25;43.50;;;;;1.56;65.87;101530.94;5035601;28;45427;-69
2022/12/17 15:02:42;;;;;;;;;51.25;41.75;;;;;1.55;65.45;101521.44;5017743;28;45297;-67
2022/12/17 15:05:13;;;;;;;;;52.75;44.00;;;;;1.54;64.99;101519.69;5035882;28;46320;-68
2022/12/17 15:07:38;;;;;;;;;50.75;44.25;;;;;1.51;65.39;101521.34;5035397;28;45480;-70
2022/12/17 15:10:09;;;;;;;;;49.25;42.50;;;;;1.46;65.76;101521.31;5035582;28;45332;-69
2022/12/17 15:12:35;;;;;;;;;47.50;41.75;;;;;1.44;64.99;101530.81;5035845;28;45530;-70
2022/12/17 15:15:00;;;;;;;;;45.75;41.00;;;;;1.42;65.41;101529.91;5036835;28;46239;-68
2022/12/17 15:17:25;;;;;;;;;49.75;41.75;;;;;1.40;66.00;101531.59;5022386;28;45705;-70
2022/12/17 15:19:51;;;;;;;;;44.75;41.00;;;;;1.40;65.43;101535.06;5036623;28;45285;-70
2022/12/17 15:22:16;;;;;;;;;62.25;50.00;;;;;1.37;65.23;101537.63;5035257;28;45648;-68
2022/12/17 15:24:43;;;;;;;;;46.50;40.00;;;;;1.33;64.73;101537.56;5035693;28;47046;-68
2022/12/17 15:27:16;;;;;;;;;48.75;43.00;;;;;1.27;65.28;101518.50;5035920;28;45515;-69
2022/12/17 15:29:42;;;;;;;;;49.75;44.25;;;;;1.22;64.71;101516.66;5036154;28;45287;-69
2022/12/17 15:32:19;;;;;;;;;49.25;43.00;;;;;1.16;65.49;101514.88;5036273;28;45393;-67
2022/12/17 15:34:45;;;;;;;;;53.50;43.50;;;;;1.11;65.07;101530.34;5034644;28;46064;-68
2022/12/17 15:37:10;;;;;;;;;52.50;42.75;;;;;1.08;65.56;101540.69;5016962;28;45273;-68
2022/12/17 15:39:36;;;;;;;;;49.00;44.25;;;;;1.08;65.56;101545.00;5017594;28;45300;-70
2022/12/17 15:44:45;;;;;;;;;56.00;42.25;;;;;1.04;65.52;101545.78;5035612;28;45896;-68
2022/12/17 15:47:10;;;;;;;;;44.75;41.00;;;;;1.01;65.97;101551.81;5036416;28;45271;-68
2022/12/17 15:49:35;;;;;;;;;42.25;39.75;;;;;0.95;65.87;101544.78;5039235;28;45268;-70
2022/12/17 15:52:01;;;;;;;;;46.25;42.25;;;;;0.89;66.06;101557.66;5038992;28;45661;-70
2022/12/17 15:54:26;;;;;;;;;55.75;47.50;;;;;0.86;66.09;101548.13;5021029;28;47852;-71
2022/12/17 15:56:53;;;;;;;;;53.50;46.75;;;;;0.85;66.44;101556.75;5038208;28;45354;-68
2022/12/17 15:59:19;;;;;;;;;56.25;45.25;;;;;0.85;66.09;101563.63;5038249;28;45301;-69
2022/12/17 16:01:44;;;;;;;;;65.75;51.75;;;;;0.73;66.27;101552.22;5038207;28;45507;-70
2022/12/17 16:04:10;;;;;;;;;57.75;45.50;;;;;0.80;66.51;101573.06;5037754;28;46186;-69
2022/12/17 16:06:35;;;;;;;;;60.00;49.00;;;;;0.72;66.21;101562.56;5037882;28;45416;-68
2022/12/17 16:09:00;;;;;;;;;56.00;46.25;;;;;0.72;66.20;101576.38;5037930;28;45360;-69
2022/12/17 16:11:26;;;;;;;;;44.75;41.50;;;;;0.42;65.99;101530.13;5019885;28;45514;-69
2022/12/17 16:13:55;;;;;;;;;51.75;45.75;;;;;0.62;66.03;101568.47;5038097;28;46506;-71
2022/12/17 16:16:22;;;;;;;;;54.00;46.00;;;;;0.55;66.27;101562.28;5038787;28;45309;-69
2022/12/17 16:18:47;;;;;;;;;65.25;53.00;;;;;0.46;66.28;101557.81;5039779;28;45270;-69
2022/12/17 16:21:12;;;;;;;;;50.00;43.25;;;;;0.48;66.55;101568.19;5038489;28;45367;-71
2022/12/17 16:23:38;;;;;;;;;39.50;38.50;;;;;0.43;66.66;101574.19;5020357;28;46968;-69
2022/12/17 16:26:06;;;;;;;;;44.75;42.00;;;;;0.35;66.24;101561.94;5038286;28;45448;-70
2022/12/17 16:28:32;;;;;;;;;45.75;41.00;;;;;0.33;66.46;101556.75;5038140;28;45321;-69
2022/12/17 16:31:07;;;;;;;;;38.50;38.50;;;;;0.27;65.96;101560.06;5020015;28;45530;-69
2022/12/17 16:33:36;;;;;;;;;48.50;44.00;;;;;0.23;66.19;101558.28;5038498;28;47326;-69
2022/12/17 16:36:03;;;;;;;;;46.00;42.50;;;;;0.06;67.12;101531.22;5020359;28;46195;-68
2022/12/17 16:38:30;;;;;;;;;47.00;41.25;;;;;0.23;66.50;101555.69;5037656;28;45468;-68
2022/12/17 16:40:58;;;;;;;;;42.75;41.25;;;;;0.21;66.62;101554.78;5019360;28;45376;-68
2022/12/17 16:43:24;;;;;;;;;50.25;43.75;;;;;0.22;67.00;101569.47;5019604;28;47196;-68
2022/12/17 16:45:51;;;;;;;;;41.50;39.00;;;;;0.19;66.82;101574.59;5037497;28;45317;-68
2022/12/17 16:48:18;;;;;;;;;48.50;42.75;;;;;0.21;66.81;101579.81;5038961;28;45312;-67
2022/12/17 16:50:44;;;;;;;;;40.75;39.75;;;;;0.19;66.40;101563.38;5040996;28;45476;-69
2022/12/17 16:53:10;;;;;;;;;62.75;53.00;;;;;0.16;66.58;101559.00;5040555;28;45627;-69
2022/12/17 16:55:45;;;;;;;;;75.00;58.67;;;;;0.09;66.17;101550.28;5039287;28;45467;-69
2022/12/17 16:58:10;;;;;;;;;51.75;45.75;;;;;0.04;67.02;101538.97;5038026;28;45477;-69
2022/12/17 17:00:37;;;;;;;;;49.75;45.00;;;;;0.07;66.71;101544.19;5036298;28;45352;-68
2022/12/17 17:03:03;;;;;;;;;46.25;40.25;;;;;0.05;66.80;101555.34;5037411;28;45991;-67
2022/12/17 17:05:37;;;;;;;;;41.50;39.75;;;;;-0.18;67.28;101515.25;5039390;28;45231;-68
2022/12/17 17:08:04;;;;;;;;;52.75;47.00;;;;;0.01;67.40;101553.53;5036919;28;45503;-67
2022/12/17 17:10:29;;;;;;;;;44.25;42.25;;;;;-0.02;67.12;101564.69;5019595;28;45515;-69
2022/12/17 17:12:55;;;;;;;;;53.75;45.00;;;;;-0.06;67.21;101568.94;5018563;28;47949;-68
2022/12/17 17:15:21;;;;;;;;;66.00;54.75;;;;;-0.05;67.54;101567.22;5036691;28;45141;-69
2022/12/17 17:17:48;;;;;;;;;60.50;51.25;;;;;-0.10;67.63;101555.91;5036661;28;45307;-68
2022/12/17 17:20:14;;;;;;;;;60.75;49.50;;;;;-0.20;67.76;101529.00;5019253;28;45490;-68
2022/12/17 17:22:39;;;;;;;;;63.00;53.25;;;;;-0.13;68.11;101548.97;5036511;28;45633;-68
2022/12/17 17:25:05;;;;;;;;;64.75;55.75;;;;;-0.11;68.31;101561.94;5037808;28;45432;-68
2022/12/17 17:27:31;;;;;;;;;68.25;57.75;;;;;-0.24;68.76;101553.94;5037738;28;45285;-70
2022/12/17 17:29:57;;;;;;;;;68.50;52.50;;;;;-0.17;68.51;101558.38;5037159;28;45322;-71
2022/12/17 17:32:25;;;;;;;;;67.00;53.50;;;;;-0.21;68.53;101548.81;5036873;28;47309;-69
2022/12/17 17:34:51;;;;;;;;;68.00;56.00;;;;;-0.28;68.54;101557.28;5037347;28;45301;-71
2022/12/17 17:37:16;;;;;;;;;69.00;56.50;;;;;-0.29;68.48;101565.88;5037844;28;45368;-68
2022/12/17 17:39:42;;;;;;;;;64.00;52.50;;;;;-0.27;68.84;101582.31;5038448;28;45570;-68
2022/12/17 17:42:08;;;;;;;;;67.00;56.50;;;;;-0.34;68.52;101580.44;5036803;28;46644;-70
2022/12/17 17:44:34;;;;;;;;;67.00;53.00;;;;;-0.32;68.75;101576.16;5036986;28;45246;-68
2022/12/17 17:47:00;;;;;;;;;64.75;51.75;;;;;-0.33;69.13;101579.59;5019677;28;45416;-69
2022/12/17 17:49:25;;;;;;;;;66.50;55.25;;;;;-0.34;69.24;101577.84;5037533;28;45634;-69
2022/12/17 17:51:51;;;;;;;;;65.50;54.75;;;;;-0.36;69.05;101582.13;5039333;28;46098;-67
2022/12/17 17:54:18;;;;;;;;;65.25;55.00;;;;;-0.40;69.09;101573.44;5021410;28;45364;-70
2022/12/17 17:56:43;;;;;;;;;76.67;63.67;;;;;-0.35;69.97;101579.59;5038732;28;45352;-70
2022/12/17 17:59:16;;;;;;;;;73.00;58.33;;;;;-0.40;69.45;101564.78;5037437;28;45223;-69
2022/12/17 18:01:44;;;;;;;;;71.00;59.00;;;;;-0.36;69.59;101571.78;5037921;28;47528;-70
2022/12/17 18:04:11;;;;;;;;;69.50;55.75;;;;;-0.38;69.74;101560.53;5037618;28;45302;-68
2022/12/17 18:06:39;;;;;;;;;75.75;61.00;;;;;-0.41;69.62;101565.63;5037448;28;45413;-71
2022/12/17 18:09:05;;;;;;;;;74.75;61.00;;;;;-0.44;69.70;101550.94;5020612;28;45390;-70
2022/12/17 18:11:32;;;;;;;;;78.00;60.67;;;;;-0.44;70.05;101556.13;5038226;28;45389;-71
2022/12/17 18:14:00;;;;;;;;;68.00;56.50;;;;;-0.46;69.94;101555.22;5039347;28;45221;-68
2022/12/17 18:16:36;;;;;;;;;74.75;59.50;;;;;-0.48;69.91;101552.59;5020466;28;45269;-70
2022/12/17 18:19:16;;;;;;;;;69.25;57.25;;;;;-0.49;69.90;101549.97;5038912;28;45203;-68
2022/12/17 18:21:42;;;;;;;;;74.50;58.00;;;;;-0.63;70.57;101532.44;5020683;28;47589;-70
2022/12/17 18:24:14;;;;;;;;;71.75;60.00;;;;;-0.84;70.05;101507.03;5019884;28;46111;-69
2022/12/17 18:26:41;;;;;;;;;74.50;59.00;;;;;-0.55;70.11;101565.31;5038295;28;45504;-68
2022/12/17 18:29:13;;;;;;;;;71.75;59.50;;;;;-0.62;70.21;101566.94;5036596;28;45317;-68
2022/12/17 18:31:38;;;;;;;;;75.25;59.50;;;;;-0.67;69.87;101558.19;5035910;28;46418;-68
2022/12/17 18:34:06;;;;;;;;;97.00;80.00;;;;;-0.69;70.50;101555.56;5036156;28;45474;-70
2022/12/17 18:36:38;;;;;;;;;82.00;65.33;;;;;-0.69;70.59;101554.72;5037343;28;45261;-71
2022/12/17 18:39:06;;;;;;;;;83.00;64.33;;;;;-0.69;70.41;101554.72;5017805;28;45543;-68
2022/12/17 18:44:17;;;;;;;;;85.33;65.33;;;;;-0.80;70.86;101578.59;5036533;28;45427;-69
2022/12/17 18:46:43;;;;;;;;;76.00;60.00;;;;;-0.77;70.34;101583.84;5037687;28;45296;-68
2022/12/17 18:49:11;;;;;;;;;76.67;59.00;;;;;-0.79;71.04;101590.69;5038151;28;45328;-70
2022/12/17 18:51:39;;;;;;;;;84.67;65.67;;;;;-0.82;70.73;101590.59;5018775;28;46373;-66
2022/12/17 18:54:06;;;;;;;;;88.67;68.67;;;;;-0.86;70.57;101588.78;5036642;28;45465;-70
2022/12/17 18:56:33;;;;;;;;;110.00;96.33;;;;;-0.83;70.49;101594.03;5037259;28;45330;-71
2022/12/17 18:58:59;;;;;;;;;102.67;89.00;;;;;-0.83;70.74;101604.38;5037882;28;45538;-70
2022/12/17 19:01:30;;;;;;;;;94.33;71.33;;;;;-0.81;70.91;101596.63;5036476;28;45245;-69
2022/12/17 19:03:56;;;;;;;;;95.00;75.67;;;;;-0.78;71.07;101604.44;5035418;28;45340;-71
2022/12/17 19:06:23;;;;;;;;;87.33;69.00;;;;;-1.04;70.27;101553.06;5037969;28;45343;-69
2022/12/17 19:08:50;;;;;;;;;92.33;69.00;;;;;-0.84;70.22;101596.56;5037969;28;45235;-68
2022/12/17 19:11:18;;;;;;;;;83.33;65.33;;;;;-0.88;70.38;101596.50;5018018;28;47372;-71
2022/12/17 19:13:45;;;;;;;;;87.67;70.00;;;;;-0.91;70.09;101590.41;5036723;28;45314;-70
2022/12/17 19:16:19;;;;;;;;;96.67;76.33;;;;;-0.88;70.35;101600.81;5018351;28;45411;-69
2022/12/17 19:18:50;;;;;;;;;96.33;82.33;;;;;-0.92;70.48;101599.84;5036040;28;45482;-71
2022/12/17 19:21:16;;;;;;;;;91.00;69.67;;;;;-0.89;70.28;101596.47;5035465;28;46034;-68
2022/12/17 19:23:41;;;;;;;;;79.33;65.33;;;;;-0.91;69.95;101596.41;5037962;28;45272;-69
2022/12/17 19:26:11;;;;;;;;;85.33;69.67;;;;;-0.95;69.76;101602.34;5039557;28;45958;-69
2022/12/17 19:28:39;;;;;;;;;77.67;61.00;;;;;-0.96;69.68;101598.03;5040565;28;45365;-71
2022/12/17 19:31:04;;;;;;;;;78.67;65.33;;;;;-0.97;69.93;101595.41;5039425;28;46359;-70
2022/12/17 19:33:30;;;;;;;;;86.00;66.67;;;;;-1.02;70.16;101595.28;5038844;28;45263;-72
2022/12/17 19:36:15;;;;;;;;;73.33;59.33;;;;;-1.05;69.19;101588.38;5038995;28;45417;-70
2022/12/17 19:38:41;;;;;;;;;75.33;61.67;;;;;-1.03;69.91;101593.56;5020764;28;45547;-69
2022/12/17 19:41:15;;;;;;;;;101.33;86.67;;;;;-1.03;69.59;101596.13;5038928;28;45981;-68
2022/12/17 19:43:45;;;;;;;;;75.67;62.00;;;;;-1.10;69.75;101574.44;5039440;28;45235;-70
2022/12/17 19:46:17;;;;;;;;;84.67;67.00;;;;;-1.02;69.79;101591.84;5039225;28;45320;-70
2022/12/17 19:48:44;;;;;;;;;72.67;60.33;;;;;-1.06;69.32;101590.91;5036925;28;45214;-70
2022/12/17 19:51:11;;;;;;;;;67.00;54.50;;;;;-1.10;69.72;101577.00;5001974;28;48063;-71
2022/12/17 19:53:38;;;;;;;;;65.67;54.67;;;;;-1.09;69.94;101580.50;5018145;28;45337;-71
2022/12/17 19:56:31;;;;;;;;;65.50;54.00;;;;;-1.07;69.58;101584.84;5018558;28;45235;-70
2022/12/17 19:59:02;;;;;;;;;70.75;56.25;;;;;-1.12;69.79;101573.53;5014125;28;45369;-71
2022/12/17 20:01:49;;;;;;;;;67.00;56.25;;;;;-1.06;69.00;101578.88;5017693;28;45520;-70
2022/12/17 20:04:15;;;;;;;;;61.25;53.50;;;;;-1.06;69.31;101584.03;5018999;28;45424;-68
2022/12/17 20:06:41;;;;;;;;;76.67;60.00;;;;;-1.10;68.89;101589.94;5021560;28;45397;-69
2022/12/17 20:09:07;;;;;;;;;70.67;56.67;;;;;-1.09;69.13;101601.16;5001505;28;45262;-68
2022/12/17 20:11:33;;;;;;;;;77.33;62.67;;;;;-1.07;69.42;101615.81;5018184;28;45546;-70
2022/12/17 20:14:10;;;;;;;;;75.67;62.00;;;;;-1.05;69.74;101619.34;5001414;28;45640;-70
2022/12/17 20:16:39;;;;;;;;;70.67;58.67;;;;;-1.02;69.41;101620.25;5025264;28;45865;-71
2022/12/17 20:19:07;;;;;;;;;70.00;57.25;;;;;-1.01;69.70;101627.19;5028933;28;45567;-72
2022/12/17 20:21:33;;;;;;;;;63.25;54.50;;;;;-1.13;68.97;101610.50;5037974;28;46625;-73
2022/12/17 20:23:58;;;;;;;;;75.00;60.67;;;;;-1.08;68.82;101621.81;5036648;28;45405;-70
2022/12/17 20:26:24;;;;;;;;;71.33;60.33;;;;;-1.11;68.86;101619.16;5020363;28;45262;-71
2022/12/17 20:28:50;;;;;;;;;68.33;58.33;;;;;-1.05;69.29;101641.72;5040632;28;45218;-70
2022/12/17 20:31:16;;;;;;;;;70.25;57.75;;;;;-1.19;68.89;101620.69;5021925;28;47127;-69
2022/12/17 20:33:42;;;;;;;;;72.67;59.00;;;;;-1.19;69.04;101624.16;5038403;28;45410;-71
2022/12/17 20:36:13;;;;;;;;;78.00;63.33;;;;;-1.01;69.29;101633.19;5037471;28;45313;-71
2022/12/17 20:38:39;;;;;;;;;75.33;62.00;;;;;-0.99;69.81;101628.09;5037163;28;45395;-70
2022/12/17 20:41:14;;;;;;;;;70.33;59.67;;;;;-0.98;69.31;101630.69;5019044;28;47183;-70
2022/12/17 20:43:39;;;;;;;;;67.25;56.75;;;;;-0.97;69.53;101635.00;5038586;28;45320;-71
2022/12/17 20:46:08;;;;;;;;;68.50;57.25;;;;;-0.95;69.68;101629.91;5021111;28;45430;-70
2022/12/17 20:48:33;;;;;;;;;76.67;62.67;;;;;-0.95;69.29;101625.59;5037602;28;45470;-71
2022/12/17 20:51:08;;;;;;;;;71.33;58.67;;;;;-0.92;69.45;101636.00;5019568;28;45481;-69
2022/12/17 20:53:34;;;;;;;;;76.00;60.00;;;;;-0.90;69.62;101641.22;5020233;28;45566;-70
2022/12/17 20:56:05;;;;;;;;;61.25;52.75;;;;;-0.93;69.03;101641.16;5038529;28;45340;-71
2022/12/17 20:58:31;;;;;;;;;74.00;59.33;;;;;-0.94;68.94;101636.81;5037851;28;45170;-69
2022/12/17 21:01:08;;;;;;;;;66.50;56.75;;;;;-1.08;69.06;101634.75;5018844;28;45889;-70
2022/12/17 21:03:34;;;;;;;;;69.75;55.00;;;;;-1.02;69.33;101654.69;5038733;28;45348;-69
2022/12/17 21:06:08;;;;;;;;;74.50;61.75;;;;;-1.05;69.29;101647.75;5038867;28;45381;-69
2022/12/17 21:08:34;;;;;;;;;79.67;62.33;;;;;-1.08;69.79;101641.63;5020030;28;45423;-71
2022/12/17 21:11:04;;;;;;;;;71.33;60.67;;;;;-1.11;69.11;101647.56;5037792;28;45369;-71
2022/12/17 21:13:29;;;;;;;;;79.67;63.00;;;;;-1.14;68.83;101641.47;5038028;28;45292;-70
2022/12/17 21:16:01;;;;;;;;;74.33;59.33;;;;;-1.38;68.91;101615.06;5038232;28;45456;-71
2022/12/17 21:18:28;;;;;;;;;69.67;59.33;;;;;-1.36;69.47;101609.97;5037667;28;45248;-70
2022/12/17 21:20:56;;;;;;;;;71.67;58.00;;;;;-1.18;69.52;101635.34;5036954;28;45411;-70
2022/12/17 21:23:22;;;;;;;;;77.00;63.00;;;;;-1.23;69.32;101621.44;5037119;28;45412;-69
2022/12/17 21:25:56;;;;;;;;;70.00;58.33;;;;;-1.08;69.68;101645.06;5036993;28;45454;-70
2022/12/17 21:28:22;;;;;;;;;71.75;59.50;;;;;-1.10;69.55;101638.13;5037155;28;45264;-69
2022/12/17 21:30:47;;;;;;;;;78.33;61.67;;;;;-1.10;69.47;101627.81;5036853;28;45412;-71
2022/12/17 21:33:13;;;;;;;;;64.00;53.00;;;;;-1.00;69.47;101631.50;5018931;28;45194;-70
2022/12/17 21:35:38;;;;;;;;;59.25;48.75;;;;;-1.05;68.93;101619.34;5037379;28;45296;-71
2022/12/17 21:38:03;;;;;;;;;73.50;58.75;;;;;-1.01;68.87;101624.59;5038391;28;45247;-71
2022/12/17 21:40:29;;;;;;;;;67.50;57.25;;;;;-1.11;68.91;101611.44;5020502;28;46227;-71
2022/12/17 21:43:00;;;;;;;;;68.50;57.75;;;;;-1.12;68.90;101616.56;5038810;28;45312;-71
2022/12/17 21:45:25;;;;;;;;;70.00;55.00;;;;;-1.01;69.26;101634.94;5037630;28;45397;-71
2022/12/17 21:47:51;;;;;;;;;63.25;52.00;;;;;-1.02;68.58;101634.03;5038562;28;45290;-72
2022/12/17 21:50:16;;;;;;;;;70.25;57.00;;;;;-1.06;69.18;101620.19;5038022;28;57165;-71
2022/12/17 21:52:41;;;;;;;;;74.00;60.33;;;;;-1.02;68.83;101617.69;5039626;28;45396;-71
2022/12/17 21:55:07;;;;;;;;;69.00;56.75;;;;;-1.06;69.15;101612.44;5038201;28;45267;-71
2022/12/17 21:57:32;;;;;;;;;70.00;57.00;;;;;-0.99;69.40;101610.00;5038300;28;45163;-70
2022/12/17 21:59:58;;;;;;;;;72.67;59.00;;;;;-0.99;69.52;101604.84;5037244;28;45416;-69
2022/12/17 22:02:23;;;;;;;;;73.67;59.00;;;;;-1.02;69.21;101592.72;5037070;28;46099;-68
2022/12/17 22:04:48;;;;;;;;;78.33;60.67;;;;;-0.99;69.09;101597.09;5038185;28;45263;-71
2022/12/17 22:07:14;;;;;;;;;79.67;61.67;;;;;-1.02;69.29;101587.53;5036962;28;45437;-71
2022/12/17 22:09:39;;;;;;;;;73.67;61.00;;;;;-1.05;69.13;101574.56;5036425;28;46334;-70
2022/12/17 22:14:49;;;;;;;;;69.33;57.33;;;;;-1.00;68.96;101583.28;5036799;28;45521;-70
2022/12/17 22:17:15;;;;;;;;;61.75;50.75;;;;;-1.00;68.61;101592.75;5036729;28;45388;-70
2022/12/17 22:19:40;;;;;;;;;68.25;57.00;;;;;-1.01;69.14;101593.59;5035908;28;46010;-68
2022/12/17 22:22:05;;;;;;;;;81.00;64.67;;;;;-1.09;68.92;101596.84;5035775;28;45392;-70
2022/12/17 22:24:31;;;;;;;;;63.75;52.75;;;;;-1.13;68.37;101584.69;5036426;28;45439;-70
2022/12/17 22:26:59;;;;;;;;;63.25;51.50;;;;;-1.12;68.35;101593.31;5036261;28;45483;-72
2022/12/17 22:34:57;;;;;;;;;72.25;58.50;;;;;-1.10;68.35;101589.94;5036706;28;45178;-70
2022/12/17 22:37:23;;;;;;;;;72.50;60.50;;;;;-1.09;68.69;101599.41;5036230;28;45654;-71
2022/12/17 22:39:48;;;;;;;;;69.67;59.00;;;;;-1.21;68.73;101581.06;5036938;28;45764;-71
2022/12/17 22:44:57;;;;;;;;;73.00;58.75;;;;;-1.36;68.71;101554.03;5037650;28;45350;-69
2022/12/17 22:47:23;;;;;;;;;77.75;60.50;;;;;-1.29;68.42;101569.66;5037743;28;45334;-69
2022/12/17 22:49:49;;;;;;;;;75.25;60.50;;;;;-1.26;68.54;101573.22;5036765;28;46117;-72
2022/12/17 22:52:14;;;;;;;;;70.75;57.00;;;;;-1.25;68.92;101579.22;5037250;28;45557;-71
2022/12/17 22:54:39;;;;;;;;;70.75;56.25;;;;;-1.29;68.82;101574.81;5036827;28;45386;-71
2022/12/17 22:57:05;;;;;;;;;63.50;50.75;;;;;-1.33;68.20;101585.06;5039110;28;45546;-69
2022/12/17 22:59:30;;;;;;;;;62.25;52.50;;;;;-1.38;68.20;101578.06;5042467;28;45317;-71
2022/12/17 23:01:55;;;;;;;;;52.25;46.25;;;;;-1.42;68.94;101587.44;5038499;28;45289;-71
2022/12/17 23:04:21;;;;;;;;;58.75;52.25;;;;;-1.47;68.04;101578.69;5037243;28;45356;-69
2022/12/17 23:06:46;;;;;;;;;68.50;55.00;;;;;-1.54;68.77;101569.06;5038922;28;45395;-71
2022/12/17 23:09:14;;;;;;;;;65.50;55.50;;;;;-1.56;68.60;101552.66;5038931;28;45354;-71
2022/12/17 23:11:39;;;;;;;;;67.50;56.75;;;;;-1.54;68.73;101548.41;5036597;28;45298;-70
2022/12/17 23:14:06;;;;;;;;;67.75;56.50;;;;;-1.57;68.23;101545.75;5035761;28;45233;-70
2022/12/17 23:16:31;;;;;;;;;64.00;50.50;;;;;-1.62;68.39;101549.09;5018749;28;45348;-70
2022/12/17 23:18:59;;;;;;;;;70.25;58.25;;;;;-1.74;68.69;101533.28;5035182;28;46431;-69
2022/12/17 23:21:25;;;;;;;;;71.50;58.50;;;;;-1.77;68.70;101535.78;5035837;28;45446;-70
2022/12/17 23:23:52;;;;;;;;;59.75;51.25;;;;;-1.75;69.02;101547.03;5035751;28;45341;-70
2022/12/17 23:26:21;;;;;;;;;68.00;58.00;;;;;-1.77;68.92;101548.69;5037109;28;45294;-70
2022/12/17 23:28:47;;;;;;;;;63.75;53.25;;;;;-1.81;69.17;101541.72;5036150;28;45326;-70
2022/12/17 23:31:18;;;;;;;;;67.00;55.50;;;;;-1.83;68.40;101551.13;5036099;28;45206;-70
2022/12/17 23:33:44;;;;;;;;;67.50;56.00;;;;;-1.86;68.71;101548.44;5018216;28;45462;-70
2022/12/17 23:36:13;;;;;;;;;67.75;54.25;;;;;-1.93;68.85;101543.13;5038893;28;45432;-71
2022/12/17 23:38:39;;;;;;;;;58.00;50.00;;;;;-2.17;68.86;101514.06;5035675;28;45333;-69
2022/12/17 23:41:12;;;;;;;;;65.00;55.50;;;;;-2.00;69.34;101556.69;5036712;28;45410;-69
2022/12/17 23:43:38;;;;;;;;;65.00;53.25;;;;;-2.18;69.17;101531.25;5035929;28;45216;-69
2022/12/17 23:46:04;;;;;;;;;69.25;57.00;;;;;-2.14;69.28;101537.38;5036099;28;45209;-71
2022/12/17 23:48:31;;;;;;;;;60.50;50.00;;;;;-2.10;68.70;101546.97;5038019;28;45511;-70
2022/12/17 23:50:59;;;;;;;;;67.75;56.25;;;;;-2.09;69.17;101561.59;5024363;28;45321;-72
2022/12/17 23:53:29;;;;;;;;;71.25;58.25;;;;;-2.14;68.57;101563.16;5042972;28;45447;-70
2022/12/17 23:55:55;;;;;;;;;61.50;52.50;;;;;-2.16;69.07;101557.97;5038476;28;45348;-71
2022/12/17 23:58:21;;;;;;;;;68.25;55.25;;;;;-2.22;69.07;101543.19;5038621;28;45453;-69
